Broad Bottom, Kentucky
Current Conditions -  °F | °C
As of 2:15 PM on Sunday 21 Dec 2014 (Local Time) from KPBX Reporting Station
Clear Clear  
Wind Chill: 43°   Ceiling: Unl
Heat Index: 43°   Visibility: 10mi
Dew Point: 29°   Wind: 3mph
Humidity: 57%   Direction: 180°S
Pressure: 30.17"   Gusts: NA
Location:  37.5348°N, 82.513°W
Report Text: KPBX 211915Z AUTO 18003KT 10SM CLR 06/M02 A3017 RMK AO2 T00631016
Loading
Personal Weather Stations






























Interactive Weather Map New forecast layout! Learn more

10-Day Weather Forecast

Advertisements
Track Severe Weather on mobile